createdAt,value
2022-11-25T00:00:49.255Z,3.50
2022-11-25T00:01:51.683Z,3.30
2022-11-25T00:02:53.230Z,3.13
2022-11-25T00:03:56.458Z,3.27
2022-11-25T00:04:57.889Z,3.13
2022-11-25T00:06:11.514Z,3.10
2022-11-25T00:07:12.995Z,3.43
2022-11-25T00:08:14.479Z,3.10
2022-11-25T00:09:15.861Z,2.87
2022-11-25T00:10:17.338Z,3.33
2022-11-25T00:11:19.118Z,3.07
2022-11-25T00:12:20.605Z,3.07
2022-11-25T00:13:22.005Z,4.00
2022-11-25T00:14:23.719Z,3.33
2022-11-25T00:15:25.179Z,3.03
2022-11-25T00:16:26.889Z,3.10
2022-11-25T00:17:28.551Z,3.60
2022-11-25T00:18:30.356Z,3.43
2022-11-25T00:19:31.800Z,3.40
2022-11-25T00:20:33.277Z,2.93
2022-11-25T00:21:35.213Z,3.27
2022-11-25T00:22:36.771Z,2.80
2022-11-25T00:23:38.906Z,3.43
2022-11-25T00:24:40.340Z,3.23
2022-11-25T00:25:41.756Z,3.27
2022-11-25T00:26:43.688Z,3.10
2022-11-25T00:27:45.145Z,3.40
2022-11-25T00:28:51.019Z,2.90
2022-11-25T00:29:52.680Z,3.10
2022-11-25T00:30:54.527Z,3.10
2022-11-25T00:31:56.067Z,3.53
2022-11-25T00:32:57.602Z,3.23
2022-11-25T00:33:59.205Z,3.10
2022-11-25T00:35:00.660Z,3.20
2022-11-25T00:36:03.775Z,2.97
2022-11-25T00:37:05.489Z,3.23
2022-11-25T00:38:07.124Z,3.63
2022-11-25T00:39:14.470Z,3.30
2022-11-25T00:40:15.907Z,3.90
2022-11-25T00:41:36.096Z,3.50
2022-11-25T00:42:56.532Z,3.23
2022-11-25T00:44:18.190Z,3.00
2022-11-25T00:45:19.629Z,3.23
2022-11-25T00:46:21.094Z,3.07
2022-11-25T00:47:22.757Z,3.10
2022-11-25T00:48:24.709Z,3.13
2022-11-25T00:49:26.321Z,3.43
2022-11-25T00:50:27.993Z,2.90
2022-11-25T00:51:29.616Z,3.10
2022-11-25T00:52:31.103Z,3.13
2022-11-25T00:53:32.924Z,3.33
2022-11-25T00:54:35.496Z,3.00
2022-11-25T00:55:57.295Z,3.07
2022-11-25T00:56:59.265Z,3.20
2022-11-25T00:58:00.683Z,2.90
2022-11-25T00:59:02.490Z,2.90
2022-11-25T01:00:05.967Z,2.93
2022-11-25T01:01:07.772Z,3.10
2022-11-25T01:02:14.085Z,3.10
2022-11-25T01:03:15.782Z,2.87
2022-11-25T01:04:17.292Z,2.80
2022-11-25T01:05:18.923Z,2.90
2022-11-25T01:06:21.246Z,3.00
2022-11-25T01:07:22.684Z,2.80
2022-11-25T01:08:24.331Z,3.20
2022-11-25T01:09:26.942Z,3.07
2022-11-25T01:10:28.505Z,2.73
2022-11-25T01:11:30.476Z,3.10
2022-11-25T01:12:31.927Z,3.07
2022-11-25T01:13:34.172Z,3.07
2022-11-25T01:14:36.017Z,3.17
2022-11-25T01:15:37.961Z,2.77
2022-11-25T01:16:39.806Z,2.80
2022-11-25T01:17:42.353Z,3.10
2022-11-25T01:18:44.337Z,2.63
2022-11-25T01:19:45.775Z,2.90
2022-11-25T01:20:47.303Z,2.90
2022-11-25T01:21:48.965Z,2.60
2022-11-25T01:22:53.035Z,2.93
2022-11-25T01:23:54.613Z,3.43
2022-11-25T01:24:56.167Z,3.03
2022-11-25T01:25:57.610Z,3.10
2022-11-25T01:26:59.960Z,2.93
2022-11-25T01:28:01.407Z,2.80
2022-11-25T01:29:05.476Z,2.90
2022-11-25T01:30:09.198Z,3.00
2022-11-25T01:31:17.868Z,2.60
2022-11-25T01:32:19.506Z,2.90
2022-11-25T01:33:21.344Z,2.80
2022-11-25T01:34:25.674Z,2.80
2022-11-25T01:35:27.220Z,3.07
2022-11-25T01:36:29.741Z,2.73
2022-11-25T01:37:31.508Z,2.97
2022-11-25T01:38:34.040Z,2.80
2022-11-25T01:39:35.804Z,2.90
2022-11-25T01:40:37.590Z,2.83
2022-11-25T01:41:39.787Z,2.73
2022-11-25T01:42:48.191Z,2.70
2022-11-25T01:44:13.434Z,3.00
2022-11-25T01:45:26.681Z,2.70
2022-11-25T01:46:36.322Z,2.53
2022-11-25T01:47:38.103Z,2.90
2022-11-25T01:48:42.194Z,2.50
2022-11-25T01:49:49.871Z,2.90
2022-11-25T01:50:52.290Z,2.67
2022-11-25T01:51:53.832Z,2.60
2022-11-25T01:52:56.729Z,2.80
2022-11-25T01:54:03.047Z,3.13
2022-11-25T01:55:28.472Z,2.67
2022-11-25T01:56:33.660Z,2.50
2022-11-25T01:57:50.760Z,2.80
2022-11-25T01:58:52.440Z,2.67
2022-11-25T01:59:57.675Z,2.73
2022-11-25T02:00:59.753Z,2.57
2022-11-25T02:02:01.698Z,2.83
2022-11-25T02:03:04.037Z,2.97
2022-11-25T02:04:07.238Z,2.73
2022-11-25T02:05:12.797Z,2.90
2022-11-25T02:06:21.460Z,2.63
2022-11-25T02:07:36.492Z,2.97
2022-11-25T02:08:39.440Z,2.70
2022-11-25T02:09:43.575Z,3.33
2022-11-25T02:10:45.467Z,2.93
2022-11-25T02:11:49.153Z,2.77
2022-11-25T02:12:51.911Z,2.70
2022-11-25T02:13:54.738Z,2.60
2022-11-25T02:14:58.992Z,2.70
2022-11-25T02:16:00.740Z,2.67
2022-11-25T02:17:02.684Z,3.27
2022-11-25T02:18:04.687Z,2.50
2022-11-25T02:19:15.925Z,2.90
2022-11-25T02:20:21.635Z,2.70
2022-11-25T02:21:41.813Z,2.90
2022-11-25T02:22:51.905Z,2.27
2022-11-25T02:24:23.862Z,2.60
2022-11-25T02:25:40.995Z,2.30
2022-11-25T02:26:47.354Z,2.40
2022-11-25T02:28:02.508Z,2.40
2022-11-25T02:29:03.991Z,2.30
2022-11-25T02:30:06.340Z,2.93
2022-11-25T02:31:08.258Z,2.57
2022-11-25T02:32:10.818Z,2.87
2022-11-25T02:33:15.668Z,2.60
2022-11-25T02:34:17.205Z,2.53
2022-11-25T02:35:36.441Z,2.50
2022-11-25T02:36:38.667Z,2.00
2022-11-25T02:37:40.245Z,2.63
2022-11-25T02:39:01.669Z,2.83
2022-11-25T02:40:07.117Z,2.60
2022-11-25T02:41:12.419Z,2.47
2022-11-25T02:42:15.771Z,2.00
2022-11-25T02:43:20.361Z,2.33
2022-11-25T02:44:22.036Z,2.40
2022-11-25T02:45:32.178Z,2.33
2022-11-25T02:46:35.545Z,2.40
2022-11-25T02:47:37.234Z,2.20
2022-11-25T02:49:07.302Z,2.30
2022-11-25T02:50:03.288Z,2.50
2022-11-25T02:51:07.068Z,2.63
2022-11-25T02:52:08.569Z,2.97
2022-11-25T02:53:10.030Z,2.37
2022-11-25T02:54:13.303Z,2.60
2022-11-25T02:55:14.840Z,2.40
2022-11-25T02:56:18.282Z,2.57
2022-11-25T02:57:19.731Z,2.33
2022-11-25T02:58:21.710Z,2.10
2022-11-25T02:59:23.176Z,2.20
2022-11-25T03:00:25.273Z,2.37
2022-11-25T03:01:27.462Z,2.30
2022-11-25T03:02:29.378Z,2.23
2022-11-25T03:03:30.901Z,1.87
2022-11-25T03:04:32.350Z,2.20
2022-11-25T03:05:33.972Z,2.27
2022-11-25T03:06:35.805Z,2.47
2022-11-25T03:07:37.539Z,2.10
2022-11-25T03:08:39.130Z,2.13
2022-11-25T03:09:43.717Z,2.30
2022-11-25T03:10:47.067Z,2.10
2022-11-25T03:12:08.375Z,2.23
2022-11-25T03:13:10.539Z,2.30
2022-11-25T03:14:14.445Z,2.87
2022-11-25T03:15:17.761Z,2.30
2022-11-25T03:16:20.011Z,2.30
2022-11-25T03:17:21.750Z,2.30
2022-11-25T03:18:24.126Z,2.30
2022-11-25T03:19:25.768Z,2.00
2022-11-25T03:20:27.785Z,2.30
2022-11-25T03:21:29.268Z,2.97
2022-11-25T03:22:31.586Z,2.10
2022-11-25T03:23:32.995Z,2.17
2022-11-25T03:24:35.956Z,2.33
2022-11-25T03:25:38.437Z,2.37
2022-11-25T03:26:39.994Z,2.17
2022-11-25T03:27:43.272Z,2.10
2022-11-25T03:28:44.794Z,2.30
2022-11-25T03:29:46.378Z,2.33
2022-11-25T03:30:47.882Z,2.40
2022-11-25T03:31:49.491Z,2.30
2022-11-25T03:32:50.952Z,2.33
2022-11-25T03:33:52.809Z,2.20
2022-11-25T03:34:55.846Z,2.63
2022-11-25T03:35:57.228Z,2.63
2022-11-25T03:36:58.881Z,2.63
2022-11-25T03:38:03.277Z,2.40
2022-11-25T03:39:08.536Z,3.00
2022-11-25T03:40:14.139Z,2.57
2022-11-25T03:41:15.990Z,2.77
2022-11-25T03:42:17.441Z,2.53
2022-11-25T03:43:19.156Z,2.40
2022-11-25T03:44:22.476Z,2.70
2022-11-25T03:45:23.846Z,5.20
2022-11-25T03:46:25.348Z,2.83
2022-11-25T03:47:29.417Z,2.53
2022-11-25T03:48:30.961Z,2.77
2022-11-25T03:49:32.767Z,2.43
2022-11-25T03:50:34.708Z,2.37
2022-11-25T03:51:36.452Z,2.50
2022-11-25T03:52:38.396Z,2.50
2022-11-25T03:53:40.359Z,2.30
2022-11-25T03:54:44.210Z,2.30
2022-11-25T03:55:50.906Z,2.47
2022-11-25T03:56:55.162Z,2.70
2022-11-25T03:57:57.230Z,3.53
2022-11-25T03:59:00.126Z,2.57
2022-11-25T04:00:02.768Z,2.30
2022-11-25T04:01:19.727Z,2.67
2022-11-25T04:02:21.531Z,2.73
2022-11-25T04:03:24.499Z,2.43
2022-11-25T04:04:26.856Z,2.53
2022-11-25T04:05:28.269Z,3.07
2022-11-25T04:06:33.421Z,2.77
2022-11-25T04:07:35.258Z,3.37
2022-11-25T04:08:37.274Z,2.50
2022-11-25T04:09:39.487Z,2.67
2022-11-25T04:10:42.072Z,2.53
2022-11-25T04:12:03.673Z,2.70
2022-11-25T04:13:15.023Z,2.60
2022-11-25T04:14:17.062Z,2.60
2022-11-25T04:15:19.139Z,2.50
2022-11-25T04:16:26.587Z,2.50
2022-11-25T04:17:29.094Z,2.47
2022-11-25T04:18:30.652Z,2.73
2022-11-25T04:19:33.533Z,2.80
2022-11-25T04:20:34.995Z,4.00
2022-11-25T04:21:39.581Z,2.70
2022-11-25T04:22:41.412Z,2.30
2022-11-25T04:23:42.950Z,2.83
2022-11-25T04:24:47.383Z,2.70
2022-11-25T04:25:53.398Z,3.00
2022-11-25T04:27:04.708Z,2.60
2022-11-25T04:28:06.704Z,2.63
2022-11-25T04:29:08.654Z,3.00
2022-11-25T04:30:11.552Z,2.50
2022-11-25T04:31:15.492Z,3.03
2022-11-25T04:32:18.561Z,2.70
2022-11-25T04:33:19.948Z,2.83
2022-11-25T04:34:22.742Z,3.30
2022-11-25T04:35:25.911Z,2.97
2022-11-25T04:36:29.188Z,2.73
2022-11-25T04:37:31.149Z,2.90
2022-11-25T04:38:33.738Z,2.97
2022-11-25T04:39:36.710Z,2.80
2022-11-25T04:40:44.824Z,2.70
2022-11-25T04:42:11.960Z,3.07
2022-11-25T04:43:13.885Z,2.90
2022-11-25T04:44:22.315Z,2.70
2022-11-25T04:45:25.852Z,3.03
2022-11-25T04:46:36.010Z,3.03
2022-11-25T04:47:39.132Z,3.10
2022-11-25T04:48:40.681Z,2.43
2022-11-25T04:49:42.971Z,2.37
2022-11-25T04:50:45.636Z,2.67
2022-11-25T04:51:48.297Z,2.63
2022-11-25T04:52:49.958Z,2.60
2022-11-25T04:53:52.446Z,3.17
2022-11-25T04:54:54.373Z,2.50
2022-11-25T04:55:57.374Z,2.40
2022-11-25T04:56:58.824Z,3.60
2022-11-25T04:58:01.489Z,3.50
2022-11-25T04:59:22.648Z,2.53
2022-11-25T05:00:24.113Z,2.40
2022-11-25T05:01:25.600Z,2.87
2022-11-25T05:02:31.989Z,2.73
2022-11-25T05:03:53.169Z,2.97
2022-11-25T05:04:59.172Z,2.43
2022-11-25T05:06:05.105Z,2.40
2022-11-25T05:07:07.258Z,2.60
2022-11-25T05:08:08.688Z,2.63
2022-11-25T05:09:11.230Z,2.40
2022-11-25T05:10:15.039Z,2.70
2022-11-25T05:11:20.506Z,2.77
2022-11-25T05:12:26.422Z,2.40
2022-11-25T05:13:27.958Z,2.60
2022-11-25T05:14:29.417Z,2.70
2022-11-25T05:15:30.904Z,2.43
2022-11-25T05:16:32.471Z,2.30
2022-11-25T05:17:35.526Z,2.50
2022-11-25T05:18:37.002Z,2.37
2022-11-25T05:19:38.854Z,2.70
2022-11-25T05:20:40.663Z,2.67
2022-11-25T05:21:42.459Z,2.60
2022-11-25T05:22:44.047Z,2.87
2022-11-25T05:23:55.668Z,2.63
2022-11-25T05:24:58.221Z,2.60
2022-11-25T05:26:01.698Z,3.07
2022-11-25T05:27:13.078Z,3.07
2022-11-25T05:28:14.863Z,2.80
2022-11-25T05:29:17.314Z,2.93
2022-11-25T05:30:18.915Z,2.70
2022-11-25T05:31:20.740Z,2.90
2022-11-25T05:32:23.481Z,2.70
2022-11-25T05:33:25.530Z,2.57
2022-11-25T05:34:27.973Z,2.90
2022-11-25T05:35:29.457Z,2.77
2022-11-25T05:36:31.040Z,2.80
2022-11-25T05:37:32.486Z,2.50
2022-11-25T05:38:38.569Z,3.00
2022-11-25T05:39:43.618Z,2.77
2022-11-25T05:41:07.764Z,2.67
2022-11-25T05:42:09.216Z,3.23
2022-11-25T05:43:11.613Z,3.00
2022-11-25T05:44:19.727Z,2.50
2022-11-25T05:45:24.505Z,2.70
2022-11-25T05:46:26.161Z,2.70
2022-11-25T05:47:30.580Z,2.60
2022-11-25T05:48:32.664Z,2.27
2022-11-25T05:49:34.107Z,2.93
2022-11-25T05:50:37.270Z,3.10
2022-11-25T05:51:47.709Z,2.47
2022-11-25T05:52:49.636Z,2.53
2022-11-25T05:53:51.363Z,2.50
2022-11-25T05:54:57.427Z,3.10
2022-11-25T05:56:00.956Z,2.47
2022-11-25T05:57:29.473Z,2.53
2022-11-25T05:58:37.810Z,3.10
2022-11-25T05:59:39.361Z,2.43
2022-11-25T06:00:46.373Z,2.57
2022-11-25T06:01:47.827Z,2.67
2022-11-25T06:02:51.265Z,2.43
2022-11-25T06:03:54.029Z,2.53
2022-11-25T06:04:55.636Z,3.30
2022-11-25T06:05:58.414Z,2.70
2022-11-25T06:06:59.938Z,2.67
2022-11-25T06:08:01.384Z,2.87
2022-11-25T06:09:03.512Z,2.63
2022-11-25T06:10:06.005Z,2.73
2022-11-25T06:11:14.220Z,3.00
2022-11-25T06:12:15.945Z,3.07
2022-11-25T06:13:22.908Z,3.73
2022-11-25T06:14:25.406Z,2.90
2022-11-25T06:15:26.899Z,2.50
2022-11-25T06:16:31.480Z,2.50
2022-11-25T06:17:54.381Z,2.53
2022-11-25T06:18:59.290Z,2.40
2022-11-25T06:20:01.191Z,2.60
2022-11-25T06:21:03.035Z,2.43
2022-11-25T06:22:04.806Z,2.70
2022-11-25T06:23:06.606Z,2.53
2022-11-25T06:24:10.830Z,2.50
2022-11-25T06:25:12.883Z,2.30
2022-11-25T06:26:21.301Z,2.53
2022-11-25T06:27:23.137Z,2.30
2022-11-25T06:28:24.541Z,2.80
2022-11-25T06:29:27.262Z,2.20
2022-11-25T06:30:31.866Z,2.70
2022-11-25T06:31:56.190Z,3.03
2022-11-25T06:33:06.725Z,2.50
2022-11-25T06:34:09.328Z,2.20
2022-11-25T06:35:12.450Z,2.40
2022-11-25T06:36:24.195Z,2.40
2022-11-25T06:37:25.601Z,2.50
2022-11-25T06:38:27.749Z,2.10
2022-11-25T06:39:29.120Z,2.20
2022-11-25T06:40:30.547Z,2.53
2022-11-25T06:41:31.909Z,2.33
2022-11-25T06:42:33.669Z,2.20
2022-11-25T06:43:35.141Z,2.47
2022-11-25T06:44:36.947Z,2.47
2022-11-25T06:45:38.493Z,2.40
2022-11-25T06:46:40.105Z,2.60
2022-11-25T06:47:41.667Z,2.87
2022-11-25T06:48:43.384Z,2.67
2022-11-25T06:49:44.883Z,2.40
2022-11-25T06:50:56.063Z,2.70
2022-11-25T06:51:57.541Z,2.70
2022-11-25T06:53:01.684Z,2.57
2022-11-25T06:54:03.129Z,2.30
2022-11-25T06:55:05.537Z,2.33
2022-11-25T06:56:14.923Z,2.80
2022-11-25T06:57:18.703Z,2.50
2022-11-25T06:58:35.395Z,2.60
2022-11-25T06:59:37.875Z,2.30
2022-11-25T07:00:39.299Z,2.47
2022-11-25T07:01:40.783Z,2.40
2022-11-25T07:02:48.011Z,2.00
2022-11-25T07:03:52.844Z,2.43
2022-11-25T07:04:54.275Z,2.40
2022-11-25T07:06:00.205Z,2.60
2022-11-25T07:07:01.623Z,2.87
2022-11-25T07:08:03.163Z,2.30
2022-11-25T07:09:06.036Z,2.40
2022-11-25T07:10:08.193Z,2.50
2022-11-25T07:11:23.316Z,2.80
2022-11-25T07:12:24.927Z,2.37
2022-11-25T07:13:26.339Z,3.33
2022-11-25T07:14:27.838Z,2.77
2022-11-25T07:15:29.310Z,2.90
2022-11-25T07:16:32.314Z,3.13
2022-11-25T07:17:33.689Z,3.10
2022-11-25T07:18:38.046Z,2.60
2022-11-25T07:19:40.365Z,2.60
2022-11-25T07:20:41.907Z,2.50
2022-11-25T07:21:45.647Z,2.57
2022-11-25T07:22:47.556Z,2.90
2022-11-25T07:23:50.407Z,3.30
2022-11-25T07:24:51.830Z,3.03
2022-11-25T07:25:53.389Z,3.07
2022-11-25T07:26:54.828Z,3.87
2022-11-25T07:27:56.266Z,2.83
2022-11-25T07:29:03.806Z,2.70
2022-11-25T07:31:34.184Z,2.50
2022-11-25T07:32:36.240Z,3.10
2022-11-25T07:33:37.868Z,3.10
2022-11-25T07:34:39.414Z,2.70
2022-11-25T07:35:40.767Z,2.63
2022-11-25T07:36:42.326Z,3.13
2022-11-25T07:37:43.817Z,2.60
2022-11-25T07:38:46.922Z,2.40
2022-11-25T07:39:48.764Z,2.90
2022-11-25T07:40:50.794Z,2.77
2022-11-25T07:41:54.020Z,3.10
2022-11-25T07:42:55.453Z,2.93
2022-11-25T07:44:02.485Z,2.70
2022-11-25T07:45:07.093Z,2.73
2022-11-25T07:46:35.136Z,3.30
2022-11-25T07:47:37.110Z,3.40
2022-11-25T07:48:38.838Z,2.43
2022-11-25T07:49:40.449Z,2.47
2022-11-25T07:50:42.077Z,2.70
2022-11-25T07:51:51.340Z,3.97
2022-11-25T07:52:52.744Z,2.93
2022-11-25T07:53:57.084Z,2.40
2022-11-25T07:54:58.819Z,2.70
2022-11-25T07:56:02.524Z,2.63
2022-11-25T07:57:04.095Z,3.00
2022-11-25T07:58:05.783Z,3.00
2022-11-25T07:59:10.115Z,2.50
2022-11-25T08:00:12.092Z,3.40
2022-11-25T08:01:15.357Z,3.40
2022-11-25T08:02:17.182Z,5.07
2022-11-25T08:03:18.677Z,2.63
2022-11-25T08:04:21.693Z,2.87
2022-11-25T08:05:23.175Z,2.30
2022-11-25T08:06:27.888Z,2.60
2022-11-25T08:07:33.442Z,2.97
2022-11-25T08:08:39.221Z,2.93
2022-11-25T08:09:40.602Z,2.67
2022-11-25T08:10:42.037Z,2.60
2022-11-25T08:11:44.035Z,2.50
2022-11-25T08:12:45.550Z,2.50
2022-11-25T08:13:47.944Z,2.20
2022-11-25T08:14:49.393Z,2.60
2022-11-25T08:15:50.909Z,2.60
2022-11-25T08:16:52.468Z,2.83
2022-11-25T08:17:53.979Z,2.90
2022-11-25T08:18:56.235Z,2.37
2022-11-25T08:19:57.707Z,2.70
2022-11-25T08:21:04.780Z,2.63
2022-11-25T08:22:06.890Z,2.80
2022-11-25T08:23:08.318Z,3.00
2022-11-25T08:24:20.693Z,2.50
2022-11-25T08:25:22.507Z,2.60
2022-11-25T08:26:36.287Z,3.17
2022-11-25T08:27:37.698Z,2.67
2022-11-25T08:28:41.256Z,2.80
2022-11-25T08:29:42.834Z,3.17
2022-11-25T08:30:44.422Z,2.60
2022-11-25T08:31:46.691Z,2.80
2022-11-25T08:32:48.644Z,3.30
2022-11-25T08:33:51.180Z,2.87
2022-11-25T08:34:52.798Z,5.33
2022-11-25T08:35:54.869Z,3.07
2022-11-25T08:36:56.670Z,3.00
2022-11-25T08:37:58.189Z,3.40
2022-11-25T08:39:01.818Z,3.00
2022-11-25T08:40:04.087Z,3.23
2022-11-25T08:41:13.202Z,3.53
2022-11-25T08:42:14.996Z,3.13
2022-11-25T08:43:16.739Z,3.60
2022-11-25T08:44:18.195Z,3.30
2022-11-25T08:45:20.203Z,3.70
2022-11-25T08:46:26.505Z,3.40
2022-11-25T08:47:28.013Z,3.93
2022-11-25T08:48:29.388Z,3.43
2022-11-25T08:49:36.012Z,3.80
2022-11-25T08:50:47.364Z,3.47
2022-11-25T08:51:48.734Z,4.17
2022-11-25T08:52:50.383Z,4.80
2022-11-25T08:53:52.765Z,3.50
2022-11-25T08:54:54.336Z,3.37
2022-11-25T08:55:55.967Z,3.23
2022-11-25T08:56:57.392Z,3.07
2022-11-25T08:57:59.240Z,3.43
2022-11-25T08:59:00.827Z,3.13
2022-11-25T09:00:04.179Z,2.70
2022-11-25T09:01:07.529Z,3.40
2022-11-25T09:02:09.639Z,2.97
2022-11-25T09:03:11.750Z,2.80
2022-11-25T09:04:13.309Z,2.90
2022-11-25T09:05:16.821Z,2.93
2022-11-25T09:06:19.333Z,3.03
2022-11-25T09:07:23.785Z,3.00
2022-11-25T09:08:28.003Z,2.97
2022-11-25T09:09:29.428Z,2.93
2022-11-25T09:10:32.161Z,3.30
2022-11-25T09:11:33.639Z,3.00
2022-11-25T09:12:35.470Z,2.73
2022-11-25T09:13:37.421Z,2.30
2022-11-25T09:14:40.518Z,3.10
2022-11-25T09:15:42.088Z,2.53
2022-11-25T09:16:43.845Z,2.90
2022-11-25T09:17:45.285Z,2.40
2022-11-25T09:18:51.034Z,2.97
2022-11-25T09:19:55.736Z,2.80
2022-11-25T09:20:58.396Z,2.97
2022-11-25T09:21:59.796Z,2.77
2022-11-25T09:23:02.469Z,2.63
2022-11-25T09:24:04.226Z,3.30
2022-11-25T09:25:06.107Z,3.30
2022-11-25T09:26:08.406Z,2.70
2022-11-25T09:27:10.212Z,2.87
2022-11-25T09:28:11.636Z,2.80
2022-11-25T09:29:14.039Z,2.53
2022-11-25T09:30:15.953Z,2.93
2022-11-25T09:31:18.105Z,2.90
2022-11-25T09:32:19.645Z,2.70
2022-11-25T09:33:21.863Z,2.27
2022-11-25T09:34:23.360Z,2.50
2022-11-25T09:35:25.601Z,2.83
2022-11-25T09:36:27.256Z,2.80
2022-11-25T09:37:28.680Z,3.20
2022-11-25T09:38:30.903Z,2.80
2022-11-25T09:39:35.526Z,2.80
2022-11-25T09:41:02.571Z,2.30
2022-11-25T09:42:49.884Z,2.73
2022-11-25T09:44:10.204Z,2.63
2022-11-25T09:45:59.036Z,2.87
2022-11-25T09:47:20.508Z,2.80
2022-11-25T09:48:44.387Z,2.67
2022-11-25T09:50:00.643Z,3.17
2022-11-25T09:51:40.031Z,2.53
2022-11-25T09:53:07.498Z,2.37
2022-11-25T09:54:46.833Z,2.80
2022-11-25T09:55:50.776Z,3.23
2022-11-25T09:57:10.542Z,2.73
2022-11-25T09:58:30.531Z,3.03
2022-11-25T09:59:40.912Z,2.20
2022-11-25T10:00:45.829Z,2.83
2022-11-25T10:01:58.865Z,2.83
2022-11-25T10:03:13.571Z,2.97
2022-11-25T10:04:24.264Z,2.43
2022-11-25T10:05:32.506Z,2.57
2022-11-25T10:06:40.805Z,2.20
2022-11-25T10:07:50.686Z,2.50
2022-11-25T10:09:01.020Z,2.63
2022-11-25T10:10:06.619Z,4.17
2022-11-25T10:11:46.058Z,2.50
2022-11-25T10:12:49.537Z,2.60
2022-11-25T10:14:03.093Z,3.03
2022-11-25T10:15:35.198Z,3.00
2022-11-25T10:16:58.248Z,3.00
2022-11-25T10:18:17.632Z,2.80
2022-11-25T10:19:34.199Z,3.23
2022-11-25T10:20:39.041Z,2.30
2022-11-25T10:21:40.535Z,2.80
2022-11-25T10:22:49.146Z,2.60
2022-11-25T10:23:50.647Z,2.90
2022-11-25T10:24:56.539Z,3.40
2022-11-25T10:26:03.561Z,2.40
2022-11-25T10:27:14.971Z,2.67
2022-11-25T10:28:20.749Z,2.93
2022-11-25T10:29:27.443Z,2.73
2022-11-25T10:30:51.067Z,2.50
2022-11-25T10:31:59.552Z,2.33
2022-11-25T10:33:16.432Z,2.73
2022-11-25T10:34:29.907Z,2.80
2022-11-25T10:35:43.444Z,2.30
2022-11-25T10:36:45.603Z,2.27
2022-11-25T10:37:54.982Z,2.30
2022-11-25T10:39:07.928Z,2.40
2022-11-25T10:40:16.730Z,2.57
2022-11-25T10:41:21.966Z,2.60
2022-11-25T10:42:27.539Z,2.50
2022-11-25T10:43:31.931Z,2.37
2022-11-25T10:44:36.883Z,2.30
2022-11-25T10:45:46.885Z,2.50
2022-11-25T10:47:15.679Z,2.73
2022-11-25T10:48:29.087Z,2.33
2022-11-25T10:49:34.938Z,2.83
2022-11-25T10:50:51.734Z,2.57
2022-11-25T10:51:53.265Z,2.50
2022-11-25T10:53:01.999Z,1.70
2022-11-25T10:54:26.802Z,2.23
2022-11-25T10:55:33.386Z,2.00
2022-11-25T10:56:46.299Z,2.40
2022-11-25T10:57:47.740Z,2.23
2022-11-25T10:58:49.180Z,2.07
2022-11-25T10:59:59.314Z,2.40
2022-11-25T11:01:25.697Z,2.10
2022-11-25T11:02:38.293Z,2.67
2022-11-25T11:03:40.637Z,2.80
2022-11-25T11:04:59.306Z,2.80
2022-11-25T11:06:00.757Z,3.30
2022-11-25T11:07:09.425Z,3.90
2022-11-25T11:08:13.682Z,2.60
2022-11-25T11:09:37.237Z,2.67
2022-11-25T11:10:39.980Z,2.93
2022-11-25T11:11:48.716Z,2.40
2022-11-25T11:13:04.845Z,2.93
2022-11-25T11:14:13.973Z,2.80
2022-11-25T11:15:23.573Z,2.53
2022-11-25T11:16:29.885Z,2.70
2022-11-25T11:17:37.104Z,2.60
2022-11-25T11:18:40.973Z,2.50
2022-11-25T11:19:42.433Z,2.50
2022-11-25T11:20:49.413Z,2.70
2022-11-25T11:21:52.369Z,2.40
2022-11-25T11:22:56.760Z,2.57
2022-11-25T11:24:00.093Z,2.57
2022-11-25T11:25:19.972Z,2.40
2022-11-25T11:26:25.894Z,2.60
2022-11-25T11:27:27.350Z,3.10
2022-11-25T11:28:32.865Z,3.00
2022-11-25T11:29:34.376Z,2.60
2022-11-25T11:30:35.847Z,2.17
2022-11-25T11:31:39.901Z,2.40
2022-11-25T11:32:45.700Z,3.20
2022-11-25T11:33:47.391Z,2.23
2022-11-25T11:35:18.294Z,2.33
2022-11-25T11:36:38.774Z,2.13
2022-11-25T11:37:45.855Z,2.37
2022-11-25T11:38:52.745Z,2.33
2022-11-25T11:40:12.642Z,2.83
2022-11-25T11:41:19.484Z,2.40
2022-11-25T11:42:49.520Z,2.80
2022-11-25T11:44:18.509Z,3.17
2022-11-25T11:45:43.176Z,2.83
2022-11-25T11:46:48.025Z,2.80
2022-11-25T11:48:13.320Z,2.33
2022-11-25T11:49:42.966Z,2.50
2022-11-25T11:51:05.740Z,2.53
2022-11-25T11:52:16.430Z,2.60
2022-11-25T11:53:26.706Z,2.60
2022-11-25T11:54:42.705Z,2.90
2022-11-25T11:56:34.080Z,2.80
2022-11-25T11:57:54.908Z,2.50
2022-11-25T11:59:25.133Z,2.70
2022-11-25T12:01:03.264Z,2.47
2022-11-25T12:02:35.315Z,2.67
2022-11-25T12:03:54.232Z,2.50
2022-11-25T12:05:10.725Z,2.70
2022-11-25T12:06:13.314Z,2.50
2022-11-25T12:07:32.249Z,2.53
2022-11-25T12:08:56.559Z,2.20
2022-11-25T12:10:03.624Z,2.20
2022-11-25T12:11:20.202Z,2.53
2022-11-25T12:12:32.574Z,2.47
2022-11-25T12:13:49.571Z,2.50
2022-11-25T12:15:01.090Z,2.40
2022-11-25T12:16:07.995Z,2.43
2022-11-25T12:17:21.423Z,2.83
2022-11-25T12:18:49.408Z,2.60
2022-11-25T12:20:17.570Z,2.83
2022-11-25T12:21:40.195Z,3.80
2022-11-25T12:23:12.523Z,2.23
2022-11-25T12:24:22.987Z,2.43
2022-11-25T12:25:29.915Z,2.70
2022-11-25T12:26:45.673Z,2.60
2022-11-25T12:27:58.081Z,2.53
2022-11-25T12:29:05.478Z,2.87
2022-11-25T12:30:12.893Z,2.70
2022-11-25T12:31:32.973Z,3.10
2022-11-25T12:32:34.515Z,2.93
2022-11-25T12:33:57.865Z,3.03
2022-11-25T12:35:03.425Z,2.50
2022-11-25T12:36:17.855Z,2.53
2022-11-25T12:37:38.014Z,3.50
2022-11-25T12:38:57.302Z,3.10
2022-11-25T12:40:27.346Z,3.43
2022-11-25T12:41:42.985Z,3.60
2022-11-25T12:42:46.722Z,2.50
2022-11-25T12:43:55.497Z,3.30
2022-11-25T12:45:07.028Z,2.40
2022-11-25T12:46:29.545Z,2.63
2022-11-25T12:47:31.495Z,2.70
2022-11-25T12:48:37.326Z,3.33
2022-11-25T12:49:43.702Z,2.80
2022-11-25T12:50:59.516Z,2.93
2022-11-25T12:52:42.471Z,2.70
2022-11-25T12:54:04.732Z,2.60
2022-11-25T12:55:23.442Z,2.63
2022-11-25T12:56:36.651Z,3.10
2022-11-25T12:57:48.794Z,2.80
2022-11-25T12:59:15.098Z,2.87
2022-11-25T13:00:43.717Z,2.90
2022-11-25T13:02:06.247Z,3.40
2022-11-25T13:03:25.047Z,2.57
2022-11-25T13:04:29.501Z,3.17
2022-11-25T13:05:49.435Z,3.20
2022-11-25T13:07:01.457Z,2.83
2022-11-25T13:08:36.401Z,2.80
2022-11-25T13:09:55.961Z,3.17
2022-11-25T13:11:22.392Z,3.00
2022-11-25T13:12:42.881Z,2.70
2022-11-25T13:13:47.876Z,2.87
2022-11-25T13:15:05.144Z,2.83
2022-11-25T13:16:09.031Z,3.13
2022-11-25T13:17:13.252Z,2.80
2022-11-25T13:18:19.141Z,3.27
2022-11-25T13:19:21.458Z,2.73
2022-11-25T13:20:28.505Z,3.07
2022-11-25T13:21:30.304Z,2.60
2022-11-25T13:22:31.690Z,2.97
2022-11-25T13:23:56.117Z,3.03
2022-11-25T13:24:58.105Z,2.53
2022-11-25T13:26:36.078Z,2.93
2022-11-25T13:27:40.151Z,2.70
2022-11-25T13:28:41.676Z,3.13
2022-11-25T13:29:43.446Z,2.67
2022-11-25T13:30:51.505Z,3.10
2022-11-25T13:31:59.557Z,2.60
2022-11-25T13:33:13.067Z,2.87
2022-11-25T13:34:20.632Z,3.07
2022-11-25T13:35:22.068Z,2.73
2022-11-25T13:36:25.502Z,3.10
2022-11-25T13:37:39.968Z,2.80
2022-11-25T13:38:50.640Z,2.73
2022-11-25T13:40:32.097Z,2.70
2022-11-25T13:41:40.244Z,2.80
2022-11-25T13:42:45.009Z,2.80
2022-11-25T13:44:02.171Z,2.73
2022-11-25T13:45:04.467Z,3.27
2022-11-25T13:46:06.459Z,2.87
2022-11-25T13:47:41.229Z,2.90
2022-11-25T13:48:44.795Z,3.10
2022-11-25T13:49:56.269Z,2.80
2022-11-25T13:51:20.761Z,3.13
2022-11-25T13:52:22.098Z,3.23
2022-11-25T13:53:34.990Z,3.07
2022-11-25T13:54:56.481Z,2.90
2022-11-25T13:56:26.846Z,2.40
2022-11-25T13:57:34.725Z,2.80
2022-11-25T13:58:36.170Z,2.80
2022-11-25T13:59:43.593Z,2.93
2022-11-25T14:01:02.493Z,2.57
2022-11-25T14:02:27.389Z,2.83
2022-11-25T14:03:28.985Z,3.90
2022-11-25T14:04:49.196Z,3.07
2022-11-25T14:06:12.451Z,3.30
2022-11-25T14:07:47.699Z,2.80
2022-11-25T14:09:02.241Z,2.77
2022-11-25T14:10:31.289Z,2.63
2022-11-25T14:11:50.681Z,2.50
2022-11-25T14:13:29.527Z,2.80
2022-11-25T14:14:49.760Z,2.53
2022-11-25T14:16:06.552Z,2.90
2022-11-25T14:17:33.270Z,2.50
2022-11-25T14:19:50.063Z,2.60
2022-11-25T14:21:10.393Z,2.77
2022-11-25T14:22:41.907Z,3.23
2022-11-25T14:24:05.839Z,3.17
2022-11-25T14:25:30.600Z,2.60
2022-11-25T14:26:49.290Z,2.90
2022-11-25T14:28:08.263Z,3.00
2022-11-25T14:29:36.467Z,3.00
2022-11-25T14:30:53.520Z,3.23
2022-11-25T14:32:02.873Z,2.60
2022-11-25T14:33:09.648Z,3.80
2022-11-25T14:34:21.711Z,3.07
2022-11-25T14:35:41.652Z,3.10
2022-11-25T14:36:52.648Z,3.37
2022-11-25T14:38:01.634Z,3.87
2022-11-25T14:39:07.658Z,4.07
2022-11-25T14:40:27.331Z,3.80
2022-11-25T14:41:53.364Z,4.57
2022-11-25T14:43:04.380Z,5.20
2022-11-25T14:44:12.777Z,5.13
2022-11-25T14:45:29.153Z,5.57
2022-11-25T14:46:30.727Z,5.20
2022-11-25T14:47:39.333Z,5.70
2022-11-25T14:48:41.888Z,5.13
2022-11-25T14:49:55.372Z,5.10
2022-11-25T14:51:03.446Z,6.00
2022-11-25T14:52:05.066Z,5.77
2022-11-25T14:53:11.183Z,5.53
2022-11-25T14:54:13.041Z,6.23
2022-11-25T14:55:28.706Z,5.77
2022-11-25T14:56:33.368Z,5.07
2022-11-25T14:57:39.897Z,6.10